Time;durP1;ratioP1;P1;durP2;ratioP2;P2;SDS_P1;SDS_P2;PMS_P1;PMS_P2;Temp;Humidity;BMP_temperature;BMP_pressure;BME280_temperature;BME280_humidity;BME280_pressure;Samples;Min_cycle;Max_cycle;Signal;HPM_P1;HPM_P2
2022/11/23 00:01:31;;;;;;;;;;;;;;;;;;6232111;22;19923;-87
2022/11/23 00:03:57;;;;;;;;;;;;;;;;;;6234708;22;20052;-88
2022/11/23 00:06:23;;;;;;;;;;;;;;;;;;6232813;22;19965;-87
2022/11/23 00:08:49;;;;;;;;;;;;;;;;;;6235010;22;19926;-87
2022/11/23 00:11:15;;;;;;;;;;;;;;;;;;6233544;22;19919;-87
2022/11/23 00:13:41;;;;;;;;;;;;;;;;;;6231990;22;19919;-88
2022/11/23 00:16:10;;;;;;;;;;;;;;;;;;6233992;22;19934;-87
2022/11/23 00:18:35;;;;;;;;;;;;;;;;;;6231237;22;19919;-88
2022/11/23 00:21:01;;;;;;;;;;;;;;;;;;6237281;22;19972;-88
2022/11/23 00:23:27;;;;;;;;;;;;;;;;;;6235828;22;19919;-88
2022/11/23 00:25:53;;;;;;;;;;;;;;;;;;6234822;22;20252;-89
2022/11/23 00:28:19;;;;;;;;;;;;;;;;;;6235492;22;19919;-88
2022/11/23 00:30:45;;;;;;;;;;;;;;;;;;6230696;22;20284;-88
2022/11/23 00:33:11;;;;;;;;;;;;;;;;;;6233868;22;19950;-88
2022/11/23 00:35:37;;;;;;;;;;;;;;;;;;6232235;22;19919;-87
2022/11/23 00:38:03;;;;;;;;;;;;;;;;;;6233333;22;19923;-86
2022/11/23 00:40:29;;;;;;;;;;;;;;;;;;6230209;22;19950;-88
2022/11/23 00:42:55;;;;;;;;;;;;;;;;;;6259880;22;20331;-88
2022/11/23 00:45:24;;;;;;;;;;;;;;;;;;6258944;22;19923;-89
2022/11/23 00:47:50;;;;;;;;;;;;;;;;;;6231166;22;20342;-87
2022/11/23 00:50:19;;;;;;;;;;;;;;;;;;6233976;22;19933;-87
2022/11/23 00:52:45;;;;;;;;;;;;;;;;;;6229223;22;19923;-88
2022/11/23 00:55:11;;;;;;;;;;;;;;;;;;6233061;22;19915;-87
2022/11/23 00:57:36;;;;;;;;;;;;;;;;;;6230127;22;19935;-88
2022/11/23 01:00:02;;;;;;;;;;;;;;;;;;6234356;22;19962;-87
2022/11/23 01:02:28;;;;;;;;;;;;;;;;;;6222132;22;20390;-87
2022/11/23 01:04:54;;;;;;;;;;;;;;;;;;6233344;22;20324;-87
2022/11/23 01:07:21;;;;;;;;;;;;;;;;;;6232535;22;20319;-87
2022/11/23 01:09:47;;;;;;;;;;;;;;;;;;6233509;22;19994;-87
2022/11/23 01:12:13;;;;;;;;;;;;;;;;;;6232859;22;20292;-87
2022/11/23 01:14:39;;;;;;;;;;;;;;;;;;6231891;22;19915;-87
2022/11/23 01:17:05;;;;;;;;;;;;;;;;;;6231478;22;19923;-87
2022/11/23 01:19:31;;;;;;;;;;;;;;;;;;6227716;22;19954;-87
2022/11/23 01:21:57;;;;;;;;;;;;;;;;;;6229503;22;19944;-87
2022/11/23 01:24:23;;;;;;;;;;;;;;;;;;6226604;22;19919;-87
2022/11/23 01:26:49;;;;;;;;;;;;;;;;;;6231660;22;19919;-88
2022/11/23 01:29:15;;;;;;;;;;;;;;;;;;6230685;22;19925;-87
2022/11/23 01:31:40;;;;;;;;;;;;;;;;;;6227373;22;20768;-87
2022/11/23 01:34:06;;;;;;;;;;;;;;;;;;6230271;22;19919;-87
2022/11/23 01:36:32;;;;;;;;;;;;;;;;;;6227766;22;19925;-87
2022/11/23 01:38:58;;;;;;;;;;;;;;;;;;6233428;22;19950;-88
2022/11/23 01:41:24;;;;;;;;;;;;;;;;;;6228839;22;19994;-88
2022/11/23 01:43:50;;;;;;;;;;;;;;;;;;6230504;22;19926;-87
2022/11/23 01:46:16;;;;;;;;;;;;;;;;;;6228139;23;20352;-87
2022/11/23 01:48:42;;;;;;;;;;;;;;;;;;6223504;23;20497;-87
2022/11/23 01:51:08;;;;;;;;;;;;;;;;;;6224548;23;19920;-88
2022/11/23 01:53:34;;;;;;;;;;;;;;;;;;6223211;23;19920;-87
2022/11/23 01:56:00;;;;;;;;;;;;;;;;;;6252814;22;19916;-87
2022/11/23 01:58:26;;;;;;;;;;;;;;;;;;6221440;23;19920;-88
2022/11/23 02:00:52;;;;;;;;;;;;;;;;;;6225139;23;20313;-88
2022/11/23 02:03:18;;;;;;;;;;;;;;;;;;6226052;23;19919;-87
2022/11/23 02:05:44;;;;;;;;;;;;;;;;;;6224068;23;19994;-87
2022/11/23 02:08:10;;;;;;;;;;;;;;;;;;6226538;23;20032;-88
2022/11/23 02:10:36;;;;;;;;;;;;;;;;;;6222472;23;20229;-88
2022/11/23 02:13:02;;;;;;;;;;;;;;;;;;6225165;23;19919;-88
2022/11/23 02:15:28;;;;;;;;;;;;;;;;;;6223120;23;20340;-88
2022/11/23 02:17:54;;;;;;;;;;;;;;;;;;6224177;23;20842;-87
2022/11/23 02:20:23;;;;;;;;;;;;;;;;;;6222787;23;20443;-88
2022/11/23 02:22:49;;;;;;;;;;;;;;;;;;6223434;23;19920;-88
2022/11/23 02:25:15;;;;;;;;;;;;;;;;;;6225394;23;19923;-88
2022/11/23 02:27:41;;;;;;;;;;;;;;;;;;6221830;23;20661;-88
2022/11/23 02:30:07;;;;;;;;;;;;;;;;;;6224762;23;20261;-88
2022/11/23 02:32:33;;;;;;;;;;;;;;;;;;6223554;23;20241;-88
2022/11/23 02:34:59;;;;;;;;;;;;;;;;;;6224399;23;19919;-88
2022/11/23 02:37:24;;;;;;;;;;;;;;;;;;6223019;23;19930;-87
2022/11/23 02:39:50;;;;;;;;;;;;;;;;;;6223835;23;19951;-87
2022/11/23 02:42:16;;;;;;;;;;;;;;;;;;6228443;23;19922;-88
2022/11/23 02:44:42;;;;;;;;;;;;;;;;;;6228972;22;20328;-88
2022/11/23 02:47:09;;;;;;;;;;;;;;;;;;6228780;22;20252;-88
2022/11/23 02:49:35;;;;;;;;;;;;;;;;;;6225896;22;19930;-88
2022/11/23 02:52:00;;;;;;;;;;;;;;;;;;6228983;22;19919;-88
2022/11/23 02:54:26;;;;;;;;;;;;;;;;;;6229318;22;19921;-88
2022/11/23 02:56:52;;;;;;;;;;;;;;;;;;6234400;22;19962;-88
2022/11/23 02:59:18;;;;;;;;;;;;;;;;;;6234161;22;19920;-88
2022/11/23 03:01:45;;;;;;;;;;;;;;;;;;6233821;22;19969;-88
2022/11/23 03:04:11;;;;;;;;;;;;;;;;;;6233206;22;19919;-88
2022/11/23 03:06:37;;;;;;;;;;;;;;;;;;6231198;22;19926;-88
2022/11/23 03:09:03;;;;;;;;;;;;;;;;;;6232342;22;20017;-88
2022/11/23 03:11:29;;;;;;;;;;;;;;;;;;6229898;22;19919;-88
2022/11/23 03:13:55;;;;;;;;;;;;;;;;;;6231892;22;19927;-88
2022/11/23 03:16:23;;;;;;;;;;;;;;;;;;6230935;22;20363;-88
2022/11/23 03:18:49;;;;;;;;;;;;;;;;;;6232109;22;19919;-88
2022/11/23 03:21:15;;;;;;;;;;;;;;;;;;6231722;22;20244;-88
2022/11/23 03:23:41;;;;;;;;;;;;;;;;;;6230249;22;20324;-88
2022/11/23 03:26:07;;;;;;;;;;;;;;;;;;6234941;22;20276;-88
2022/11/23 03:28:33;;;;;;;;;;;;;;;;;;6230327;22;19937;-88
2022/11/23 03:30:59;;;;;;;;;;;;;;;;;;6232272;22;19919;-88
2022/11/23 03:33:25;;;;;;;;;;;;;;;;;;6229075;22;19971;-88
2022/11/23 03:35:51;;;;;;;;;;;;;;;;;;6234523;22;19919;-88
2022/11/23 03:38:17;;;;;;;;;;;;;;;;;;6236627;22;19921;-88
2022/11/23 03:40:43;;;;;;;;;;;;;;;;;;6232951;22;20334;-88
2022/11/23 03:43:08;;;;;;;;;;;;;;;;;;6234059;22;19919;-87
2022/11/23 03:45:34;;;;;;;;;;;;;;;;;;6233905;22;19930;-88
2022/11/23 03:48:00;;;;;;;;;;;;;;;;;;6233648;22;19920;-87
2022/11/23 03:50:28;;;;;;;;;;;;;;;;;;6231986;22;19993;-88
2022/11/23 03:52:54;;;;;;;;;;;;;;;;;;6237099;22;19915;-88
2022/11/23 03:55:23;;;;;;;;;;;;;;;;;;6233805;22;19919;-87
2022/11/23 03:57:49;;;;;;;;;;;;;;;;;;6234981;22;19926;-88
2022/11/23 04:00:15;;;;;;;;;;;;;;;;;;6232625;22;20408;-88
2022/11/23 04:02:41;;;;;;;;;;;;;;;;;;6230512;22;20305;-88
2022/11/23 04:05:07;;;;;;;;;;;;;;;;;;6234794;22;19984;-88
2022/11/23 04:07:33;;;;;;;;;;;;;;;;;;6233867;22;19947;-88
2022/11/23 04:09:59;;;;;;;;;;;;;;;;;;6233988;22;19919;-88
2022/11/23 04:12:25;;;;;;;;;;;;;;;;;;6230421;22;19919;-88
2022/11/23 04:14:51;;;;;;;;;;;;;;;;;;6234802;22;19919;-88
2022/11/23 04:17:17;;;;;;;;;;;;;;;;;;6234489;22;19919;-88
2022/11/23 04:19:43;;;;;;;;;;;;;;;;;;6230331;22;19946;-88
2022/11/23 04:22:09;;;;;;;;;;;;;;;;;;6234695;22;19919;-88
2022/11/23 04:24:34;;;;;;;;;;;;;;;;;;6231046;22;19919;-88
2022/11/23 04:27:00;;;;;;;;;;;;;;;;;;6232887;22;19919;-89
2022/11/23 04:29:26;;;;;;;;;;;;;;;;;;6230610;22;19922;-88
2022/11/23 04:31:52;;;;;;;;;;;;;;;;;;6232037;22;19923;-87
2022/11/23 04:34:18;;;;;;;;;;;;;;;;;;6233438;22;19990;-88
2022/11/23 04:36:44;;;;;;;;;;;;;;;;;;6232215;22;19998;-88
2022/11/23 04:39:11;;;;;;;;;;;;;;;;;;6234311;22;20000;-88
2022/11/23 04:41:37;;;;;;;;;;;;;;;;;;6230425;22;19926;-88
2022/11/23 04:44:03;;;;;;;;;;;;;;;;;;6232366;22;20287;-88
2022/11/23 04:46:29;;;;;;;;;;;;;;;;;;6231440;22;19923;-89
2022/11/23 04:48:55;;;;;;;;;;;;;;;;;;6236810;22;19918;-89
2022/11/23 04:51:21;;;;;;;;;;;;;;;;;;6232012;22;19915;-89
2022/11/23 04:53:47;;;;;;;;;;;;;;;;;;6233066;22;20637;-89
2022/11/23 04:56:13;;;;;;;;;;;;;;;;;;6234614;22;20030;-89
2022/11/23 04:58:39;;;;;;;;;;;;;;;;;;6229231;22;20256;-89
2022/11/23 05:01:05;;;;;;;;;;;;;;;;;;6235660;22;19989;-89
2022/11/23 05:03:33;;;;;;;;;;;;;;;;;;6231731;22;20451;-89
2022/11/23 05:05:59;;;;;;;;;;;;;;;;;;6233925;22;19962;-89
2022/11/23 05:08:25;;;;;;;;;;;;;;;;;;6231710;22;20479;-89
2022/11/23 05:10:51;;;;;;;;;;;;;;;;;;6233248;22;19922;-88
2022/11/23 05:13:17;;;;;;;;;;;;;;;;;;6233811;22;19919;-89
2022/11/23 05:15:43;;;;;;;;;;;;;;;;;;6233642;22;19958;-89
2022/11/23 05:18:09;;;;;;;;;;;;;;;;;;6234922;22;19923;-89
2022/11/23 05:20:35;;;;;;;;;;;;;;;;;;6229714;22;19927;-89
2022/11/23 05:23:01;;;;;;;;;;;;;;;;;;6231452;22;19986;-89
2022/11/23 05:25:27;;;;;;;;;;;;;;;;;;6227933;22;20294;-89
2022/11/23 05:27:53;;;;;;;;;;;;;;;;;;6231019;22;19978;-86
2022/11/23 05:30:19;;;;;;;;;;;;;;;;;;6231930;22;19919;-87
2022/11/23 05:32:45;;;;;;;;;;;;;;;;;;6228122;22;19919;-88
2022/11/23 05:35:11;;;;;;;;;;;;;;;;;;6228108;22;20122;-88
2022/11/23 05:37:37;;;;;;;;;;;;;;;;;;6229363;22;19920;-88
2022/11/23 05:40:03;;;;;;;;;;;;;;;;;;6231456;22;19926;-89
2022/11/23 05:42:29;;;;;;;;;;;;;;;;;;6230413;22;19972;-88
2022/11/23 05:44:55;;;;;;;;;;;;;;;;;;6231324;22;19915;-87
2022/11/23 05:47:24;;;;;;;;;;;;;;;;;;6232535;22;19919;-88
2022/11/23 05:49:50;;;;;;;;;;;;;;;;;;6230937;22;19919;-88
2022/11/23 05:52:16;;;;;;;;;;;;;;;;;;6235419;22;20229;-87
2022/11/23 05:54:42;;;;;;;;;;;;;;;;;;6227853;22;19930;-88
2022/11/23 05:57:08;;;;;;;;;;;;;;;;;;6233022;22;20343;-88
2022/11/23 05:59:33;;;;;;;;;;;;;;;;;;6229121;22;20231;-88
2022/11/23 06:01:59;;;;;;;;;;;;;;;;;;6228832;22;19927;-88
2022/11/23 06:04:25;;;;;;;;;;;;;;;;;;6230638;22;19919;-87
2022/11/23 06:06:53;;;;;;;;;;;;;;;;;;6234551;22;19919;-88
2022/11/23 06:09:19;;;;;;;;;;;;;;;;;;6235161;22;19993;-88
2022/11/23 06:11:47;;;;;;;;;;;;;;;;;;6229293;22;19919;-88
2022/11/23 06:14:13;;;;;;;;;;;;;;;;;;6232061;22;19919;-88
2022/11/23 06:16:39;;;;;;;;;;;;;;;;;;6226533;22;19943;-89
2022/11/23 06:19:04;;;;;;;;;;;;;;;;;;6235864;22;19920;-89
2022/11/23 06:21:30;;;;;;;;;;;;;;;;;;6230375;22;19942;-89
2022/11/23 06:23:56;;;;;;;;;;;;;;;;;;6230615;22;20354;-89
2022/11/23 06:26:23;;;;;;;;;;;;;;;;;;6231120;22;19919;-90
2022/11/23 06:28:51;;;;;;;;;;;;;;;;;;6237165;22;20367;-89
2022/11/23 06:31:17;;;;;;;;;;;;;;;;;;6232948;22;19919;-89
2022/11/23 06:33:43;;;;;;;;;;;;;;;;;;6229704;22;19919;-88
2022/11/23 06:36:10;;;;;;;;;;;;;;;;;;6233785;22;20435;-88
2022/11/23 06:38:36;;;;;;;;;;;;;;;;;;6230260;22;20244;-88
2022/11/23 06:41:02;;;;;;;;;;;;;;;;;;6232267;22;19927;-89
2022/11/23 06:43:33;;;;;;;;;;;;;;;;;;6234553;22;19930;-89
2022/11/23 06:45:59;;;;;;;;;;;;;;;;;;6236535;22;19919;-88
2022/11/23 06:48:25;;;;;;;;;;;;;;;;;;6194572;23;20257;-88
2022/11/23 06:51:00;;;;;;;;;;;;;;;;;;6169579;23;19924;-89
2022/11/23 06:53:28;;;;;;;;;;;;;;;;;;6167482;23;20380;-90
2022/11/23 06:55:54;;;;;;;;;;;;;;;;;;6174407;23;19927;-89
2022/11/23 06:58:26;;;;;;;;;;;;;;;;;;6188513;23;19920;-89
2022/11/23 07:00:52;;;;;;;;;;;;;;;;;;6179877;23;19952;-89
2022/11/23 07:03:18;;;;;;;;;;;;;;;;;;6175196;23;19928;-89
2022/11/23 07:05:44;;;;;;;;;;;;;;;;;;6197615;23;19963;-89
2022/11/23 07:08:10;;;;;;;;;;;;;;;;;;6175135;23;20300;-89
2022/11/23 07:10:36;;;;;;;;;;;;;;;;;;6198627;23;19920;-88
2022/11/23 07:13:02;;;;;;;;;;;;;;;;;;6202005;23;19919;-89
2022/11/23 07:15:28;;;;;;;;;;;;;;;;;;6172151;23;19924;-89
2022/11/23 07:17:54;;;;;;;;;;;;;;;;;;6175563;23;19923;-88
2022/11/23 07:20:23;;;;;;;;;;;;;;;;;;6232082;22;19916;-88
2022/11/23 07:22:49;;;;;;;;;;;;;;;;;;6236890;22;20018;-88
2022/11/23 07:25:17;;;;;;;;;;;;;;;;;;6236191;22;19922;-89
2022/11/23 07:27:43;;;;;;;;;;;;;;;;;;6230408;22;19946;-89
2022/11/23 07:30:09;;;;;;;;;;;;;;;;;;6232844;22;19951;-88
2022/11/23 07:32:35;;;;;;;;;;;;;;;;;;6230259;22;19915;-89
2022/11/23 07:35:01;;;;;;;;;;;;;;;;;;6233950;22;19915;-88
2022/11/23 07:37:27;;;;;;;;;;;;;;;;;;6231605;22;19919;-89
2022/11/23 07:39:53;;;;;;;;;;;;;;;;;;6237140;22;20200;-88
2022/11/23 07:42:19;;;;;;;;;;;;;;;;;;6234864;22;20409;-90
2022/11/23 07:44:45;;;;;;;;;;;;;;;;;;6234012;22;19924;-88
2022/11/23 07:47:14;;;;;;;;;;;;;;;;;;6238594;22;19927;-88
2022/11/23 07:49:39;;;;;;;;;;;;;;;;;;6236638;22;19935;-89
2022/11/23 07:52:05;;;;;;;;;;;;;;;;;;6240656;22;19915;-89
2022/11/23 07:54:31;;;;;;;;;;;;;;;;;;6234951;22;19926;-88
2022/11/23 07:56:57;;;;;;;;;;;;;;;;;;6237339;22;19923;-89
2022/11/23 07:59:23;;;;;;;;;;;;;;;;;;6234527;22;20328;-89
2022/11/23 08:01:49;;;;;;;;;;;;;;;;;;6237859;22;19919;-88
2022/11/23 08:04:15;;;;;;;;;;;;;;;;;;6247230;22;19919;-88
2022/11/23 08:06:41;;;;;;;;;;;;;;;;;;6230275;22;20351;-88
2022/11/23 08:09:07;;;;;;;;;;;;;;;;;;6235970;22;19991;-88
2022/11/23 08:11:33;;;;;;;;;;;;;;;;;;6240828;22;19915;-89
2022/11/23 08:13:59;;;;;;;;;;;;;;;;;;6243814;22;19941;-88
2022/11/23 08:16:25;;;;;;;;;;;;;;;;;;6238077;22;19931;-89
2022/11/23 08:18:51;;;;;;;;;;;;;;;;;;6239589;22;20397;-88
2022/11/23 08:21:17;;;;;;;;;;;;;;;;;;6243590;22;19930;-89
2022/11/23 08:23:43;;;;;;;;;;;;;;;;;;6240217;22;20419;-89
2022/11/23 08:26:09;;;;;;;;;;;;;;;;;;6239444;22;20385;-88
2022/11/23 08:28:37;;;;;;;;;;;;;;;;;;6238593;22;19915;-88
2022/11/23 08:31:03;;;;;;;;;;;;;;;;;;6238731;22;20384;-88
2022/11/23 08:33:29;;;;;;;;;;;;;;;;;;6234629;22;19946;-89
2022/11/23 08:35:55;;;;;;;;;;;;;;;;;;6234331;22;19915;-89
2022/11/23 08:38:21;;;;;;;;;;;;;;;;;;6234706;22;19972;-89
2022/11/23 08:40:47;;;;;;;;;;;;;;;;;;6235755;22;19964;-90
2022/11/23 08:43:13;;;;;;;;;;;;;;;;;;6241432;22;19915;-90
2022/11/23 08:45:42;;;;;;;;;;;;;;;;;;6236728;22;19923;-89
2022/11/23 08:48:08;;;;;;;;;;;;;;;;;;6238213;22;19991;-90
2022/11/23 08:50:40;;;;;;;;;;;;;;;;;;6236847;22;19926;-90
2022/11/23 08:53:06;;;;;;;;;;;;;;;;;;6238722;22;19949;-89
2022/11/23 08:55:32;;;;;;;;;;;;;;;;;;6237611;22;20256;-90
2022/11/23 08:57:58;;;;;;;;;;;;;;;;;;6240538;22;20322;-90
2022/11/23 09:00:24;;;;;;;;;;;;;;;;;;6236046;22;19981;-90
2022/11/23 09:02:50;;;;;;;;;;;;;;;;;;6238937;22;19986;-90
2022/11/23 09:05:16;;;;;;;;;;;;;;;;;;6238943;22;19919;-90
2022/11/23 09:07:42;;;;;;;;;;;;;;;;;;6238089;22;20018;-90
2022/11/23 09:10:08;;;;;;;;;;;;;;;;;;6239597;22;19923;-90
2022/11/23 09:12:34;;;;;;;;;;;;;;;;;;6236406;22;19919;-90
2022/11/23 09:15:00;;;;;;;;;;;;;;;;;;6237813;22;20235;-90
2022/11/23 09:17:26;;;;;;;;;;;;;;;;;;6235672;22;19927;-90
2022/11/23 09:19:52;;;;;;;;;;;;;;;;;;6237382;22;20110;-90
2022/11/23 09:22:18;;;;;;;;;;;;;;;;;;6238852;22;19927;-90
2022/11/23 09:24:44;;;;;;;;;;;;;;;;;;6238295;22;19915;-90
2022/11/23 09:27:10;;;;;;;;;;;;;;;;;;6241081;22;19953;-90
2022/11/23 09:29:36;;;;;;;;;;;;;;;;;;6237392;22;20321;-90
2022/11/23 09:32:01;;;;;;;;;;;;;;;;;;6239060;22;19982;-90
2022/11/23 09:34:27;;;;;;;;;;;;;;;;;;6234132;22;19929;-90
2022/11/23 09:36:53;;;;;;;;;;;;;;;;;;6239577;22;19923;-90
2022/11/23 09:39:19;;;;;;;;;;;;;;;;;;6239356;22;19919;-90
2022/11/23 09:41:45;;;;;;;;;;;;;;;;;;6235600;22;19923;-90
2022/11/23 09:44:11;;;;;;;;;;;;;;;;;;6239900;22;19962;-90
2022/11/23 09:46:37;;;;;;;;;;;;;;;;;;6162638;22;1874060;-90
2022/11/23 09:49:03;;;;;;;;;;;;;;;;;;6241034;22;19926;-90
2022/11/23 09:51:29;;;;;;;;;;;;;;;;;;6237770;22;19966;-90
2022/11/23 09:53:55;;;;;;;;;;;;;;;;;;6239908;22;19919;-90
2022/11/23 09:56:21;;;;;;;;;;;;;;;;;;6237717;22;19949;-90
2022/11/23 09:58:47;;;;;;;;;;;;;;;;;;6241535;22;19923;-90
2022/11/23 10:01:13;;;;;;;;;;;;;;;;;;6240720;22;19915;-90
2022/11/23 10:03:39;;;;;;;;;;;;;;;;;;6238623;22;19987;-90
2022/11/23 10:06:05;;;;;;;;;;;;;;;;;;6241336;22;19927;-90
2022/11/23 10:08:31;;;;;;;;;;;;;;;;;;6237492;22;19923;-90
2022/11/23 10:10:57;;;;;;;;;;;;;;;;;;6240044;22;19919;-90
2022/11/23 10:13:23;;;;;;;;;;;;;;;;;;6238170;22;19969;-90
2022/11/23 10:15:49;;;;;;;;;;;;;;;;;;6240779;22;19969;-90
2022/11/23 10:18:15;;;;;;;;;;;;;;;;;;6241489;22;19919;-90
2022/11/23 10:20:41;;;;;;;;;;;;;;;;;;6237723;22;20317;-89
2022/11/23 10:23:07;;;;;;;;;;;;;;;;;;6239221;22;19915;-90
2022/11/23 10:25:33;;;;;;;;;;;;;;;;;;6236653;22;20408;-90
2022/11/23 10:27:59;;;;;;;;;;;;;;;;;;6240682;22;19923;-90
2022/11/23 10:30:25;;;;;;;;;;;;;;;;;;6238163;22;20221;-90
2022/11/23 10:32:51;;;;;;;;;;;;;;;;;;6240714;22;19923;-90
2022/11/23 10:35:17;;;;;;;;;;;;;;;;;;6239837;22;19969;-90
2022/11/23 10:37:42;;;;;;;;;;;;;;;;;;6238502;22;19958;-90
2022/11/23 10:40:09;;;;;;;;;;;;;;;;;;6241374;22;20316;-90
2022/11/23 10:42:34;;;;;;;;;;;;;;;;;;6237896;22;20408;-90
2022/11/23 10:45:00;;;;;;;;;;;;;;;;;;6237617;22;19962;-90
2022/11/23 10:47:26;;;;;;;;;;;;;;;;;;6236086;22;19919;-90
2022/11/23 10:49:52;;;;;;;;;;;;;;;;;;6241114;22;20387;-90
2022/11/23 10:52:18;;;;;;;;;;;;;;;;;;6241127;22;20340;-90
2022/11/23 10:54:44;;;;;;;;;;;;;;;;;;6235706;22;19915;-89
2022/11/23 10:57:10;;;;;;;;;;;;;;;;;;6240917;22;19927;-89
2022/11/23 10:59:36;;;;;;;;;;;;;;;;;;6238095;22;19990;-89
2022/11/23 11:02:02;;;;;;;;;;;;;;;;;;6239095;22;20306;-90
2022/11/23 11:04:28;;;;;;;;;;;;;;;;;;6237566;22;19990;-89
2022/11/23 11:06:54;;;;;;;;;;;;;;;;;;6241360;22;19962;-89
2022/11/23 11:09:23;;;;;;;;;;;;;;;;;;6240839;22;19986;-90
2022/11/23 11:11:49;;;;;;;;;;;;;;;;;;6241758;22;20318;-89
2022/11/23 11:14:15;;;;;;;;;;;;;;;;;;6239471;22;19942;-89
2022/11/23 11:16:41;;;;;;;;;;;;;;;;;;6237992;22;20478;-90
2022/11/23 11:19:07;;;;;;;;;;;;;;;;;;6241004;22;19923;-90
2022/11/23 11:21:33;;;;;;;;;;;;;;;;;;6238542;22;19925;-89
2022/11/23 11:23:59;;;;;;;;;;;;;;;;;;6240720;22;20381;-90
2022/11/23 11:26:25;;;;;;;;;;;;;;;;;;6261680;22;19915;-90
2022/11/23 11:28:51;;;;;;;;;;;;;;;;;;6237043;22;19927;-90
2022/11/23 11:31:17;;;;;;;;;;;;;;;;;;6241172;22;20390;-90
2022/11/23 11:33:43;;;;;;;;;;;;;;;;;;6238108;22;19927;-90
2022/11/23 11:36:09;;;;;;;;;;;;;;;;;;6240702;22;19915;-90
2022/11/23 11:38:35;;;;;;;;;;;;;;;;;;6237261;22;19945;-91
2022/11/23 11:41:01;;;;;;;;;;;;;;;;;;6238373;22;19919;-90
2022/11/23 11:43:27;;;;;;;;;;;;;;;;;;6239697;22;19915;-90
2022/11/23 11:45:53;;;;;;;;;;;;;;;;;;6241654;22;19999;-90
2022/11/23 11:48:19;;;;;;;;;;;;;;;;;;6242203;22;19919;-90
2022/11/23 11:50:45;;;;;;;;;;;;;;;;;;6239217;22;19923;-90
2022/11/23 11:53:11;;;;;;;;;;;;;;;;;;6242102;22;20378;-90
2022/11/23 11:55:37;;;;;;;;;;;;;;;;;;6238818;22;19951;-90
2022/11/23 11:58:03;;;;;;;;;;;;;;;;;;6242103;22;19923;-91
2022/11/23 12:00:29;;;;;;;;;;;;;;;;;;6239377;22;19919;-90
2022/11/23 12:02:55;;;;;;;;;;;;;;;;;;6241494;22;20332;-91
2022/11/23 12:05:24;;;;;;;;;;;;;;;;;;6240391;22;19923;-91
2022/11/23 12:07:50;;;;;;;;;;;;;;;;;;6241194;22;19915;-90
2022/11/23 12:10:16;;;;;;;;;;;;;;;;;;6241333;22;19922;-91
2022/11/23 12:12:42;;;;;;;;;;;;;;;;;;6239781;22;19919;-91
2022/11/23 12:15:08;;;;;;;;;;;;;;;;;;6241682;22;19925;-90
2022/11/23 12:17:33;;;;;;;;;;;;;;;;;;6238785;22;19954;-90
2022/11/23 12:19:59;;;;;;;;;;;;;;;;;;6240722;22;19973;-91
2022/11/23 12:22:25;;;;;;;;;;;;;;;;;;6239556;22;19950;-91
2022/11/23 12:24:51;;;;;;;;;;;;;;;;;;6242052;22;20283;-91
2022/11/23 12:27:17;;;;;;;;;;;;;;;;;;6240610;22;19923;-91
2022/11/23 12:29:43;;;;;;;;;;;;;;;;;;6235738;22;19919;-91
2022/11/23 12:32:09;;;;;;;;;;;;;;;;;;6240525;22;19919;-90
2022/11/23 12:34:36;;;;;;;;;;;;;;;;;;6238762;22;19923;-91
2022/11/23 12:37:02;;;;;;;;;;;;;;;;;;6239459;22;19919;-90
2022/11/23 12:39:28;;;;;;;;;;;;;;;;;;6235466;22;19965;-91
2022/11/23 12:41:54;;;;;;;;;;;;;;;;;;6215113;22;19919;-91
2022/11/23 12:44:23;;;;;;;;;;;;;;;;;;6237765;22;19941;-91
2022/11/23 12:46:49;;;;;;;;;;;;;;;;;;6239987;22;19927;-91
2022/11/23 12:49:15;;;;;;;;;;;;;;;;;;6213389;22;19919;-91
2022/11/23 12:51:41;;;;;;;;;;;;;;;;;;6211962;22;20163;-91
2022/11/23 12:54:07;;;;;;;;;;;;;;;;;;6214196;22;20264;-91
2022/11/23 12:56:33;;;;;;;;;;;;;;;;;;6209009;22;19930;-91
2022/11/23 12:58:59;;;;;;;;;;;;;;;;;;6214389;22;19919;-91
2022/11/23 13:01:25;;;;;;;;;;;;;;;;;;6211914;22;20256;-91
2022/11/23 13:03:51;;;;;;;;;;;;;;;;;;6239178;22;19972;-92
2022/11/23 13:06:17;;;;;;;;;;;;;;;;;;6214676;22;19919;-91
2022/11/23 13:08:43;;;;;;;;;;;;;;;;;;6212761;22;19919;-91
2022/11/23 13:11:09;;;;;;;;;;;;;;;;;;6239312;22;19960;-91
2022/11/23 13:13:35;;;;;;;;;;;;;;;;;;6239965;22;19919;-91
2022/11/23 13:16:01;;;;;;;;;;;;;;;;;;6241442;22;19919;-90
2022/11/23 13:18:27;;;;;;;;;;;;;;;;;;6238132;22;20394;-91
2022/11/23 13:20:52;;;;;;;;;;;;;;;;;;6238708;22;19947;-91
2022/11/23 13:23:20;;;;;;;;;;;;;;;;;;6241716;22;19915;-91
2022/11/23 13:25:49;;;;;;;;;;;;;;;;;;6240033;22;19919;-91
2022/11/23 13:28:15;;;;;;;;;;;;;;;;;;6241014;22;20225;-91
2022/11/23 13:30:41;;;;;;;;;;;;;;;;;;6237193;22;20351;-91
2022/11/23 13:33:07;;;;;;;;;;;;;;;;;;6240806;22;19923;-91
2022/11/23 13:35:33;;;;;;;;;;;;;;;;;;6237674;22;19919;-91
2022/11/23 13:37:59;;;;;;;;;;;;;;;;;;6240313;22;19923;-90
2022/11/23 13:40:25;;;;;;;;;;;;;;;;;;6237578;22;20332;-91
2022/11/23 13:42:51;;;;;;;;;;;;;;;;;;6240306;22;19915;-91
2022/11/23 13:45:17;;;;;;;;;;;;;;;;;;6240396;22;19923;-90
2022/11/23 13:47:43;;;;;;;;;;;;;;;;;;6239207;22;19919;-90
2022/11/23 13:50:12;;;;;;;;;;;;;;;;;;6233891;22;19923;-91
2022/11/23 13:52:38;;;;;;;;;;;;;;;;;;6236774;22;19930;-90
2022/11/23 13:55:04;;;;;;;;;;;;;;;;;;6237170;22;20331;-90
2022/11/23 13:57:30;;;;;;;;;;;;;;;;;;6233598;22;19923;-90
2022/11/23 13:59:56;;;;;;;;;;;;;;;;;;6236456;22;19920;-90
2022/11/23 14:02:22;;;;;;;;;;;;;;;;;;6233690;22;20248;-90
2022/11/23 14:04:48;;;;;;;;;;;;;;;;;;6237362;22;19930;-90
2022/11/23 14:07:14;;;;;;;;;;;;;;;;;;6237461;22;19929;-91
2022/11/23 14:09:40;;;;;;;;;;;;;;;;;;6233745;22;19919;-90
2022/11/23 14:12:06;;;;;;;;;;;;;;;;;;6236275;22;19926;-90
2022/11/23 14:14:32;;;;;;;;;;;;;;;;;;6236275;22;19953;-90
2022/11/23 14:16:58;;;;;;;;;;;;;;;;;;6237030;22;19930;-90
2022/11/23 14:19:24;;;;;;;;;;;;;;;;;;6235012;22;19919;-90
2022/11/23 14:21:59;;;;;;;;;;;;;;;;;;6238460;22;20326;-90
2022/11/23 14:24:25;;;;;;;;;;;;;;;;;;6235669;22;19919;-91
2022/11/23 14:26:52;;;;;;;;;;;;;;;;;;6236711;22;19923;-91
2022/11/23 14:29:17;;;;;;;;;;;;;;;;;;6235967;22;19923;-91
2022/11/23 14:31:43;;;;;;;;;;;;;;;;;;6234485;22;19919;-90
2022/11/23 14:34:09;;;;;;;;;;;;;;;;;;6238003;22;19950;-91
2022/11/23 14:36:35;;;;;;;;;;;;;;;;;;6235627;22;20287;-91
2022/11/23 14:39:02;;;;;;;;;;;;;;;;;;6237330;22;20403;-91
2022/11/23 14:41:28;;;;;;;;;;;;;;;;;;6228631;22;20027;-90
2022/11/23 14:43:54;;;;;;;;;;;;;;;;;;6233333;22;19994;-90
2022/11/23 14:46:20;;;;;;;;;;;;;;;;;;6236266;22;19972;-91
2022/11/23 14:51:37;;;;;;;;;;;;;;;;;;6227696;22;20303;-91
2022/11/23 14:54:06;;;;;;;;;;;;;;;;;;6235848;22;19919;-91
2022/11/23 14:56:35;;;;;;;;;;;;;;;;;;6231442;22;20375;-90
2022/11/23 15:14:56;;;;;;;;;;;;;;;;;;6124486;23;19967;-90
2022/11/23 15:20:14;;;;;;;;;;;;;;;;;;6199557;23;19919;-91
2022/11/23 15:22:40;;;;;;;;;;;;;;;;;;6201981;23;19923;-91
2022/11/23 15:25:09;;;;;;;;;;;;;;;;;;6206243;23;19923;-90
2022/11/23 15:27:35;;;;;;;;;;;;;;;;;;6204195;23;19954;-91
2022/11/23 15:30:01;;;;;;;;;;;;;;;;;;6205367;23;20354;-90
2022/11/23 15:32:27;;;;;;;;;;;;;;;;;;6201118;23;19931;-90
2022/11/23 15:34:55;;;;;;;;;;;;;;;;;;6205940;23;19927;-90
2022/11/23 15:37:24;;;;;;;;;;;;;;;;;;6204784;23;20018;-90
2022/11/23 15:39:50;;;;;;;;;;;;;;;;;;6205630;23;20312;-90
2022/11/23 15:42:16;;;;;;;;;;;;;;;;;;6204797;23;20245;-90
2022/11/23 15:44:42;;;;;;;;;;;;;;;;;;6200336;23;19920;-90
2022/11/23 15:47:10;;;;;;;;;;;;;;;;;;6205146;23;19919;-90
2022/11/23 15:49:52;;;;;;;;;;;;;;;;;;6231070;22;19919;-90
2022/11/23 15:52:27;;;;;;;;;;;;;;;;;;6235853;22;20260;-90
2022/11/23 15:55:14;;;;;;;;;;;;;;;;;;6167689;23;19963;-90
2022/11/23 16:01:11;;;;;;;;;;;;;;;;;;6098743;23;19921;-91
2022/11/23 16:03:49;;;;;;;;;;;;;;;;;;6083026;23;19981;-90
2022/11/23 16:06:39;;;;;;;;;;;;;;;;;;6078351;23;19924;-91
2022/11/23 16:09:48;;;;;;;;;;;;;;;;;;5967392;24;19922;-90
2022/11/23 16:12:22;;;;;;;;;;;;;;;;;;5887422;24;20390;-90
2022/11/23 16:14:51;;;;;;;;;;;;;;;;;;5869752;24;19927;-90
2022/11/23 16:17:26;;;;;;;;;;;;;;;;;;5891825;24;19973;-90
2022/11/23 16:20:15;;;;;;;;;;;;;;;;;;5867400;24;20254;-91
2022/11/23 16:22:58;;;;;;;;;;;;;;;;;;5888152;24;20111;-90
2022/11/23 16:25:44;;;;;;;;;;;;;;;;;;5883760;24;19927;-91
2022/11/23 16:28:25;;;;;;;;;;;;;;;;;;5920451;24;19922;-91
2022/11/23 16:34:27;;;;;;;;;;;;;;;;;;;;;
2022/11/23 16:40:00;;;;;;;;;;;;;;;;;;6040755;23;20007;-91
2022/11/23 16:48:40;;;;;;;;;;;;;;;;;;5935901;24;19973;-91
2022/11/23 16:51:43;;;;;;;;;;;;;;;;;;;;;
2022/11/23 16:54:14;;;;;;;;;;;;;;;;;;5931635;24;19929;-91
2022/11/23 16:56:43;;;;;;;;;;;;;;;;;;5886824;24;20329;-91
2022/11/23 17:02:19;;;;;;;;;;;;;;;;;;5960903;23;19987;-91
2022/11/23 17:05:00;;;;;;;;;;;;;;;;;;5968532;23;19923;-91
2022/11/23 17:16:35;;;;;;;;;;;;;;;;;;6018127;23;19929;-91
2022/11/23 17:19:15;;;;;;;;;;;;;;;;;;5992218;23;19971;-92
2022/11/23 17:22:10;;;;;;;;;;;;;;;;;;5968249;23;19926;-91
2022/11/23 17:24:39;;;;;;;;;;;;;;;;;;5997199;23;19922;-94
2022/11/23 17:27:05;;;;;;;;;;;;;;;;;;6027382;23;20351;-92
2022/11/23 17:29:31;;;;;;;;;;;;;;;;;;6053904;23;20084;-91
2022/11/23 17:31:57;;;;;;;;;;;;;;;;;;6030703;23;20516;-91
2022/11/23 17:34:23;;;;;;;;;;;;;;;;;;6030818;23;19918;-91